sensor_id;sensor_type;location;lat;lon;timestamp;P1;durP1;ratioP1;P2;durP2;ratioP2
32108;SDS011;18624;50.042;8.436;2023-03-20T00:01:09;6.17;;;5.57;;
32108;SDS011;18624;50.042;8.436;2023-03-20T00:03:45;7.80;;;6.22;;
32108;SDS011;18624;50.042;8.436;2023-03-20T00:06:13;7.13;;;6.43;;
32108;SDS011;18624;50.042;8.436;2023-03-20T00:08:48;8.93;;;8.02;;
32108;SDS011;18624;50.042;8.436;2023-03-20T00:13:58;8.43;;;7.50;;
32108;SDS011;18624;50.042;8.436;2023-03-20T00:16:30;8.65;;;7.72;;
32108;SDS011;18624;50.042;8.436;2023-03-20T00:19:01;8.48;;;7.68;;
32108;SDS011;18624;50.042;8.436;2023-03-20T00:21:29;8.13;;;6.82;;
32108;SDS011;18624;50.042;8.436;2023-03-20T00:23:56;9.10;;;7.75;;
32108;SDS011;18624;50.042;8.436;2023-03-20T00:26:24;9.18;;;8.27;;
32108;SDS011;18624;50.042;8.436;2023-03-20T00:28:53;9.70;;;8.10;;
32108;SDS011;18624;50.042;8.436;2023-03-20T00:31:24;8.90;;;7.85;;
32108;SDS011;18624;50.042;8.436;2023-03-20T00:33:53;9.33;;;7.90;;
32108;SDS011;18624;50.042;8.436;2023-03-20T00:36:22;8.65;;;7.75;;
32108;SDS011;18624;50.042;8.436;2023-03-20T00:38:49;8.20;;;7.40;;
32108;SDS011;18624;50.042;8.436;2023-03-20T00:41:27;9.00;;;8.07;;
32108;SDS011;18624;50.042;8.436;2023-03-20T00:44:01;10.40;;;9.18;;
32108;SDS011;18624;50.042;8.436;2023-03-20T00:46:35;9.68;;;8.68;;
32108;SDS011;18624;50.042;8.436;2023-03-20T00:49:04;9.07;;;7.63;;
32108;SDS011;18624;50.042;8.436;2023-03-20T00:51:31;8.95;;;8.00;;
32108;SDS011;18624;50.042;8.436;2023-03-20T00:53:58;8.40;;;7.60;;
32108;SDS011;18624;50.042;8.436;2023-03-20T00:56:30;9.27;;;7.72;;
32108;SDS011;18624;50.042;8.436;2023-03-20T00:59:00;8.95;;;8.02;;
32108;SDS011;18624;50.042;8.436;2023-03-20T01:01:29;9.75;;;8.75;;
32108;SDS011;18624;50.042;8.436;2023-03-20T01:03:58;10.07;;;9.07;;
32108;SDS011;18624;50.042;8.436;2023-03-20T01:06:26;9.13;;;8.18;;
32108;SDS011;18624;50.042;8.436;2023-03-20T01:08:54;9.52;;;7.68;;
32108;SDS011;18624;50.042;8.436;2023-03-20T01:11:24;8.18;;;7.38;;
32108;SDS011;18624;50.042;8.436;2023-03-20T01:13:50;9.32;;;8.43;;
32108;SDS011;18624;50.042;8.436;2023-03-20T01:16:21;8.30;;;7.50;;
32108;SDS011;18624;50.042;8.436;2023-03-20T01:18:50;8.60;;;7.05;;
32108;SDS011;18624;50.042;8.436;2023-03-20T01:21:18;8.93;;;8.10;;
32108;SDS011;18624;50.042;8.436;2023-03-20T01:23:47;9.13;;;8.13;;
32108;SDS011;18624;50.042;8.436;2023-03-20T01:28:47;9.57;;;8.23;;
32108;SDS011;18624;50.042;8.436;2023-03-20T01:31:16;8.98;;;8.18;;
32108;SDS011;18624;50.042;8.436;2023-03-20T01:33:44;9.68;;;8.40;;
32108;SDS011;18624;50.042;8.436;2023-03-20T01:36:12;9.38;;;8.43;;
32108;SDS011;18624;50.042;8.436;2023-03-20T01:38:41;8.68;;;7.78;;
32108;SDS011;18624;50.042;8.436;2023-03-20T01:41:13;8.65;;;7.78;;
32108;SDS011;18624;50.042;8.436;2023-03-20T01:43:43;10.60;;;7.95;;
32108;SDS011;18624;50.042;8.436;2023-03-20T01:46:25;9.45;;;8.15;;
32108;SDS011;18624;50.042;8.436;2023-03-20T01:49:09;8.25;;;7.35;;
32108;SDS011;18624;50.042;8.436;2023-03-20T01:51:58;8.35;;;7.55;;
32108;SDS011;18624;50.042;8.436;2023-03-20T01:54:33;18.60;;;11.60;;
32108;SDS011;18624;50.042;8.436;2023-03-20T01:57:14;19.13;;;11.63;;
32108;SDS011;18624;50.042;8.436;2023-03-20T01:59:48;16.80;;;10.85;;
32108;SDS011;18624;50.042;8.436;2023-03-20T02:02:18;15.80;;;10.15;;
32108;SDS011;18624;50.042;8.436;2023-03-20T02:04:49;17.65;;;11.23;;
32108;SDS011;18624;50.042;8.436;2023-03-20T02:07:19;17.50;;;10.25;;
32108;SDS011;18624;50.042;8.436;2023-03-20T02:09:56;17.50;;;10.80;;
32108;SDS011;18624;50.042;8.436;2023-03-20T02:12:49;15.90;;;9.98;;
32108;SDS011;18624;50.042;8.436;2023-03-20T02:15:25;17.25;;;10.27;;
32108;SDS011;18624;50.042;8.436;2023-03-20T02:18:07;16.02;;;9.02;;
32108;SDS011;18624;50.042;8.436;2023-03-20T02:23:30;13.77;;;8.60;;
32108;SDS011;18624;50.042;8.436;2023-03-20T02:34:48;15.55;;;9.35;;
32108;SDS011;18624;50.042;8.436;2023-03-20T02:48:24;13.93;;;8.32;;
32108;SDS011;18624;50.042;8.436;2023-03-20T02:59:27;14.82;;;8.55;;
32108;SDS011;18624;50.042;8.436;2023-03-20T03:02:11;14.88;;;8.60;;
32108;SDS011;18624;50.042;8.436;2023-03-20T03:04:43;16.98;;;9.07;;
32108;SDS011;18624;50.042;8.436;2023-03-20T03:07:16;16.17;;;9.15;;
32108;SDS011;18624;50.042;8.436;2023-03-20T03:09:55;15.02;;;9.38;;
32108;SDS011;18624;50.042;8.436;2023-03-20T03:12:29;14.52;;;9.05;;
32108;SDS011;18624;50.042;8.436;2023-03-20T03:15:02;16.38;;;9.50;;
32108;SDS011;18624;50.042;8.436;2023-03-20T03:17:35;14.73;;;8.60;;
32108;SDS011;18624;50.042;8.436;2023-03-20T03:20:06;16.88;;;9.50;;
32108;SDS011;18624;50.042;8.436;2023-03-20T03:22:39;18.23;;;9.73;;
32108;SDS011;18624;50.042;8.436;2023-03-20T03:25:08;16.60;;;9.70;;
32108;SDS011;18624;50.042;8.436;2023-03-20T03:27:38;16.67;;;9.45;;
32108;SDS011;18624;50.042;8.436;2023-03-20T03:30:18;17.88;;;9.52;;
32108;SDS011;18624;50.042;8.436;2023-03-20T03:35:38;16.65;;;8.75;;
32108;SDS011;18624;50.042;8.436;2023-03-20T03:40:52;14.73;;;9.52;;
32108;SDS011;18624;50.042;8.436;2023-03-20T03:43:51;15.57;;;9.90;;
32108;SDS011;18624;50.042;8.436;2023-03-20T03:46:35;15.07;;;9.77;;
32108;SDS011;18624;50.042;8.436;2023-03-20T03:49:11;14.85;;;9.80;;
32108;SDS011;18624;50.042;8.436;2023-03-20T03:51:42;15.52;;;10.18;;
32108;SDS011;18624;50.042;8.436;2023-03-20T03:54:19;16.83;;;10.35;;
32108;SDS011;18624;50.042;8.436;2023-03-20T03:57:09;14.65;;;9.88;;
32108;SDS011;18624;50.042;8.436;2023-03-20T03:59:40;15.25;;;10.20;;
32108;SDS011;18624;50.042;8.436;2023-03-20T04:02:09;15.32;;;10.25;;
32108;SDS011;18624;50.042;8.436;2023-03-20T04:04:39;16.50;;;11.30;;
32108;SDS011;18624;50.042;8.436;2023-03-20T04:07:09;16.57;;;10.33;;
32108;SDS011;18624;50.042;8.436;2023-03-20T04:09:36;16.27;;;10.63;;
32108;SDS011;18624;50.042;8.436;2023-03-20T04:12:03;14.88;;;10.90;;
32108;SDS011;18624;50.042;8.436;2023-03-20T04:14:31;16.52;;;10.23;;
32108;SDS011;18624;50.042;8.436;2023-03-20T04:16:57;17.95;;;10.82;;
32108;SDS011;18624;50.042;8.436;2023-03-20T04:19:24;16.98;;;11.00;;
32108;SDS011;18624;50.042;8.436;2023-03-20T04:21:51;15.63;;;10.25;;
32108;SDS011;18624;50.042;8.436;2023-03-20T04:24:17;17.73;;;11.55;;
32108;SDS011;18624;50.042;8.436;2023-03-20T04:26:44;19.98;;;14.95;;
32108;SDS011;18624;50.042;8.436;2023-03-20T04:29:11;17.88;;;13.07;;
32108;SDS011;18624;50.042;8.436;2023-03-20T04:32:00;17.23;;;11.43;;
32108;SDS011;18624;50.042;8.436;2023-03-20T04:34:45;17.02;;;10.75;;
32108;SDS011;18624;50.042;8.436;2023-03-20T04:37:44;17.05;;;10.95;;
32108;SDS011;18624;50.042;8.436;2023-03-20T04:40:11;19.45;;;11.68;;
32108;SDS011;18624;50.042;8.436;2023-03-20T04:42:40;19.02;;;11.18;;
32108;SDS011;18624;50.042;8.436;2023-03-20T04:45:07;18.02;;;11.43;;
32108;SDS011;18624;50.042;8.436;2023-03-20T04:47:36;18.58;;;11.85;;
32108;SDS011;18624;50.042;8.436;2023-03-20T04:50:04;18.13;;;11.65;;
32108;SDS011;18624;50.042;8.436;2023-03-20T04:52:31;22.52;;;13.45;;
32108;SDS011;18624;50.042;8.436;2023-03-20T04:54:58;20.60;;;12.02;;
32108;SDS011;18624;50.042;8.436;2023-03-20T04:57:24;20.13;;;12.85;;
32108;SDS011;18624;50.042;8.436;2023-03-20T04:59:51;21.23;;;13.05;;
32108;SDS011;18624;50.042;8.436;2023-03-20T05:02:18;20.67;;;13.30;;
32108;SDS011;18624;50.042;8.436;2023-03-20T05:04:44;22.63;;;13.63;;
32108;SDS011;18624;50.042;8.436;2023-03-20T05:07:11;25.55;;;16.02;;
32108;SDS011;18624;50.042;8.436;2023-03-20T05:09:47;22.65;;;14.30;;
32108;SDS011;18624;50.042;8.436;2023-03-20T05:12:15;26.33;;;15.32;;
32108;SDS011;18624;50.042;8.436;2023-03-20T05:14:59;22.48;;;13.75;;
32108;SDS011;18624;50.042;8.436;2023-03-20T05:17:44;25.85;;;15.13;;
32108;SDS011;18624;50.042;8.436;2023-03-20T05:20:23;28.58;;;17.08;;
32108;SDS011;18624;50.042;8.436;2023-03-20T05:23:02;30.52;;;18.63;;
32108;SDS011;18624;50.042;8.436;2023-03-20T05:25:49;28.17;;;16.33;;
32108;SDS011;18624;50.042;8.436;2023-03-20T05:28:39;23.90;;;16.73;;
32108;SDS011;18624;50.042;8.436;2023-03-20T05:31:24;28.77;;;16.98;;
32108;SDS011;18624;50.042;8.436;2023-03-20T05:34:11;29.08;;;16.88;;
32108;SDS011;18624;50.042;8.436;2023-03-20T05:36:43;30.60;;;18.85;;
32108;SDS011;18624;50.042;8.436;2023-03-20T05:39:28;31.08;;;19.05;;
32108;SDS011;18624;50.042;8.436;2023-03-20T05:41:57;31.00;;;19.60;;
32108;SDS011;18624;50.042;8.436;2023-03-20T05:44:39;33.10;;;19.45;;
32108;SDS011;18624;50.042;8.436;2023-03-20T05:47:15;32.58;;;20.05;;
32108;SDS011;18624;50.042;8.436;2023-03-20T05:50:00;35.08;;;23.23;;
32108;SDS011;18624;50.042;8.436;2023-03-20T05:52:35;35.78;;;23.70;;
32108;SDS011;18624;50.042;8.436;2023-03-20T05:55:24;40.70;;;24.55;;
32108;SDS011;18624;50.042;8.436;2023-03-20T05:58:26;40.70;;;24.45;;
32108;SDS011;18624;50.042;8.436;2023-03-20T06:01:00;41.80;;;24.23;;
32108;SDS011;18624;50.042;8.436;2023-03-20T06:03:58;40.17;;;23.25;;
32108;SDS011;18624;50.042;8.436;2023-03-20T06:06:51;43.25;;;26.65;;
32108;SDS011;18624;50.042;8.436;2023-03-20T06:09:18;42.97;;;26.65;;
32108;SDS011;18624;50.042;8.436;2023-03-20T06:11:45;50.83;;;30.40;;
32108;SDS011;18624;50.042;8.436;2023-03-20T06:14:14;52.10;;;29.27;;
32108;SDS011;18624;50.042;8.436;2023-03-20T06:16:44;49.58;;;30.25;;
32108;SDS011;18624;50.042;8.436;2023-03-20T06:19:12;51.08;;;30.13;;
32108;SDS011;18624;50.042;8.436;2023-03-20T06:21:40;49.50;;;29.02;;
32108;SDS011;18624;50.042;8.436;2023-03-20T06:24:11;48.38;;;29.67;;
32108;SDS011;18624;50.042;8.436;2023-03-20T06:26:38;52.88;;;31.50;;
32108;SDS011;18624;50.042;8.436;2023-03-20T06:29:08;48.72;;;30.98;;
32108;SDS011;18624;50.042;8.436;2023-03-20T06:31:35;53.08;;;33.08;;
32108;SDS011;18624;50.042;8.436;2023-03-20T06:34:04;52.92;;;31.65;;
32108;SDS011;18624;50.042;8.436;2023-03-20T06:36:36;54.87;;;31.80;;
32108;SDS011;18624;50.042;8.436;2023-03-20T06:39:08;51.55;;;31.73;;
32108;SDS011;18624;50.042;8.436;2023-03-20T06:41:35;53.83;;;31.85;;
32108;SDS011;18624;50.042;8.436;2023-03-20T06:44:06;50.35;;;30.90;;
32108;SDS011;18624;50.042;8.436;2023-03-20T06:46:53;55.42;;;30.75;;
32108;SDS011;18624;50.042;8.436;2023-03-20T06:49:19;57.17;;;32.80;;
32108;SDS011;18624;50.042;8.436;2023-03-20T06:51:46;54.40;;;33.25;;
32108;SDS011;18624;50.042;8.436;2023-03-20T06:54:20;56.97;;;31.52;;
32108;SDS011;18624;50.042;8.436;2023-03-20T06:56:47;57.28;;;33.83;;
32108;SDS011;18624;50.042;8.436;2023-03-20T06:59:13;54.97;;;31.95;;
32108;SDS011;18624;50.042;8.436;2023-03-20T07:01:40;61.83;;;33.65;;
32108;SDS011;18624;50.042;8.436;2023-03-20T07:04:07;60.08;;;34.45;;
32108;SDS011;18624;50.042;8.436;2023-03-20T07:06:40;57.47;;;32.60;;
32108;SDS011;18624;50.042;8.436;2023-03-20T07:09:07;58.60;;;34.15;;
32108;SDS011;18624;50.042;8.436;2023-03-20T07:11:34;58.33;;;33.78;;
32108;SDS011;18624;50.042;8.436;2023-03-20T07:14:01;58.38;;;32.83;;
32108;SDS011;18624;50.042;8.436;2023-03-20T07:16:50;66.07;;;34.47;;
32108;SDS011;18624;50.042;8.436;2023-03-20T07:19:17;60.80;;;34.45;;
32108;SDS011;18624;50.042;8.436;2023-03-20T07:21:48;60.70;;;32.72;;
32108;SDS011;18624;50.042;8.436;2023-03-20T07:24:15;56.75;;;33.50;;
32108;SDS011;18624;50.042;8.436;2023-03-20T07:26:42;70.00;;;34.45;;
32108;SDS011;18624;50.042;8.436;2023-03-20T07:29:10;55.53;;;31.65;;
32108;SDS011;18624;50.042;8.436;2023-03-20T07:31:36;58.90;;;32.38;;
32108;SDS011;18624;50.042;8.436;2023-03-20T07:34:11;57.88;;;31.35;;
32108;SDS011;18624;50.042;8.436;2023-03-20T07:36:39;57.50;;;29.90;;
32108;SDS011;18624;50.042;8.436;2023-03-20T07:39:08;57.88;;;31.38;;
32108;SDS011;18624;50.042;8.436;2023-03-20T07:41:36;56.30;;;30.63;;
32108;SDS011;18624;50.042;8.436;2023-03-20T07:44:07;54.70;;;30.15;;
32108;SDS011;18624;50.042;8.436;2023-03-20T07:46:45;48.85;;;27.35;;
32108;SDS011;18624;50.042;8.436;2023-03-20T07:49:17;54.47;;;29.90;;
32108;SDS011;18624;50.042;8.436;2023-03-20T07:51:45;48.50;;;28.75;;
32108;SDS011;18624;50.042;8.436;2023-03-20T07:54:12;45.08;;;26.73;;
32108;SDS011;18624;50.042;8.436;2023-03-20T07:56:40;43.75;;;25.63;;
32108;SDS011;18624;50.042;8.436;2023-03-20T07:59:06;49.13;;;27.63;;
32108;SDS011;18624;50.042;8.436;2023-03-20T08:01:33;43.53;;;25.17;;
32108;SDS011;18624;50.042;8.436;2023-03-20T08:04:00;42.78;;;24.65;;
32108;SDS011;18624;50.042;8.436;2023-03-20T08:06:26;44.03;;;25.05;;
32108;SDS011;18624;50.042;8.436;2023-03-20T08:08:53;39.10;;;24.60;;
32108;SDS011;18624;50.042;8.436;2023-03-20T08:11:20;40.17;;;22.08;;
32108;SDS011;18624;50.042;8.436;2023-03-20T08:13:46;39.78;;;24.20;;
32108;SDS011;18624;50.042;8.436;2023-03-20T08:16:13;42.60;;;24.65;;
32108;SDS011;18624;50.042;8.436;2023-03-20T08:18:39;41.85;;;24.67;;
32108;SDS011;18624;50.042;8.436;2023-03-20T08:21:07;40.80;;;23.25;;
32108;SDS011;18624;50.042;8.436;2023-03-20T08:23:34;40.75;;;22.73;;
32108;SDS011;18624;50.042;8.436;2023-03-20T08:26:00;42.65;;;23.13;;
32108;SDS011;18624;50.042;8.436;2023-03-20T08:28:27;40.58;;;23.52;;
32108;SDS011;18624;50.042;8.436;2023-03-20T08:31:12;39.55;;;21.95;;
32108;SDS011;18624;50.042;8.436;2023-03-20T08:33:39;40.38;;;23.65;;
32108;SDS011;18624;50.042;8.436;2023-03-20T08:36:06;38.83;;;23.52;;
32108;SDS011;18624;50.042;8.436;2023-03-20T08:38:33;38.17;;;22.13;;
32108;SDS011;18624;50.042;8.436;2023-03-20T08:40:59;40.63;;;23.80;;
32108;SDS011;18624;50.042;8.436;2023-03-20T08:43:26;39.40;;;24.08;;
32108;SDS011;18624;50.042;8.436;2023-03-20T08:45:52;40.85;;;23.35;;
32108;SDS011;18624;50.042;8.436;2023-03-20T08:48:19;39.33;;;23.73;;
32108;SDS011;18624;50.042;8.436;2023-03-20T08:50:46;39.50;;;23.85;;
32108;SDS011;18624;50.042;8.436;2023-03-20T08:53:12;40.17;;;24.58;;
32108;SDS011;18624;50.042;8.436;2023-03-20T08:55:39;38.17;;;24.10;;
32108;SDS011;18624;50.042;8.436;2023-03-20T08:58:05;42.80;;;25.35;;
32108;SDS011;18624;50.042;8.436;2023-03-20T09:00:32;42.85;;;24.90;;
32108;SDS011;18624;50.042;8.436;2023-03-20T09:02:58;48.17;;;25.63;;
32108;SDS011;18624;50.042;8.436;2023-03-20T09:05:25;48.83;;;27.85;;
32108;SDS011;18624;50.042;8.436;2023-03-20T09:07:51;49.65;;;28.05;;
32108;SDS011;18624;50.042;8.436;2023-03-20T09:10:18;49.30;;;29.17;;
32108;SDS011;18624;50.042;8.436;2023-03-20T09:12:44;48.35;;;28.70;;
32108;SDS011;18624;50.042;8.436;2023-03-20T09:15:11;46.15;;;26.98;;
32108;SDS011;18624;50.042;8.436;2023-03-20T09:17:38;46.47;;;27.98;;
32108;SDS011;18624;50.042;8.436;2023-03-20T09:20:05;47.67;;;26.67;;
32108;SDS011;18624;50.042;8.436;2023-03-20T09:22:31;51.70;;;28.75;;
32108;SDS011;18624;50.042;8.436;2023-03-20T09:24:58;51.13;;;30.15;;
32108;SDS011;18624;50.042;8.436;2023-03-20T09:27:24;53.00;;;29.45;;
32108;SDS011;18624;50.042;8.436;2023-03-20T09:29:51;52.67;;;29.25;;
32108;SDS011;18624;50.042;8.436;2023-03-20T09:32:17;48.78;;;28.35;;
32108;SDS011;18624;50.042;8.436;2023-03-20T09:34:44;54.97;;;32.67;;
32108;SDS011;18624;50.042;8.436;2023-03-20T09:37:11;54.70;;;31.17;;
32108;SDS011;18624;50.042;8.436;2023-03-20T09:39:37;55.17;;;31.63;;
32108;SDS011;18624;50.042;8.436;2023-03-20T09:42:16;51.65;;;30.42;;
32108;SDS011;18624;50.042;8.436;2023-03-20T09:45:09;44.83;;;28.55;;
32108;SDS011;18624;50.042;8.436;2023-03-20T09:47:46;48.33;;;28.75;;
32108;SDS011;18624;50.042;8.436;2023-03-20T09:50:59;47.10;;;27.33;;
32108;SDS011;18624;50.042;8.436;2023-03-20T09:53:33;48.20;;;27.88;;
32108;SDS011;18624;50.042;8.436;2023-03-20T09:56:04;45.10;;;27.65;;
32108;SDS011;18624;50.042;8.436;2023-03-20T09:58:37;44.13;;;27.60;;
32108;SDS011;18624;50.042;8.436;2023-03-20T10:01:06;41.08;;;25.08;;
32108;SDS011;18624;50.042;8.436;2023-03-20T10:03:42;41.57;;;24.23;;
32108;SDS011;18624;50.042;8.436;2023-03-20T10:06:16;40.10;;;24.10;;
32108;SDS011;18624;50.042;8.436;2023-03-20T10:08:44;37.85;;;21.98;;
32108;SDS011;18624;50.042;8.436;2023-03-20T10:13:53;35.65;;;21.35;;
32108;SDS011;18624;50.042;8.436;2023-03-20T10:19:50;34.50;;;22.33;;
32108;SDS011;18624;50.042;8.436;2023-03-20T10:22:25;32.03;;;20.15;;
32108;SDS011;18624;50.042;8.436;2023-03-20T10:27:33;33.35;;;20.63;;
32108;SDS011;18624;50.042;8.436;2023-03-20T10:30:10;35.53;;;21.13;;
32108;SDS011;18624;50.042;8.436;2023-03-20T10:32:53;43.25;;;26.13;;
32108;SDS011;18624;50.042;8.436;2023-03-20T10:35:46;25.52;;;16.63;;
32108;SDS011;18624;50.042;8.436;2023-03-20T10:38:25;21.65;;;14.95;;
32108;SDS011;18624;50.042;8.436;2023-03-20T10:41:35;20.98;;;15.82;;
32108;SDS011;18624;50.042;8.436;2023-03-20T10:44:04;19.50;;;13.85;;
32108;SDS011;18624;50.042;8.436;2023-03-20T10:46:39;16.27;;;11.75;;
32108;SDS011;18624;50.042;8.436;2023-03-20T10:49:18;17.33;;;12.30;;
32108;SDS011;18624;50.042;8.436;2023-03-20T10:51:51;20.55;;;13.82;;
32108;SDS011;18624;50.042;8.436;2023-03-20T10:54:40;17.63;;;11.75;;
32108;SDS011;18624;50.042;8.436;2023-03-20T10:57:19;14.10;;;10.73;;
32108;SDS011;18624;50.042;8.436;2023-03-20T10:59:52;18.30;;;12.52;;
32108;SDS011;18624;50.042;8.436;2023-03-20T11:04:50;15.02;;;11.43;;
32108;SDS011;18624;50.042;8.436;2023-03-20T11:07:20;13.77;;;11.02;;
32108;SDS011;18624;50.042;8.436;2023-03-20T11:12:36;12.30;;;9.52;;
32108;SDS011;18624;50.042;8.436;2023-03-20T11:15:29;14.32;;;10.43;;
32108;SDS011;18624;50.042;8.436;2023-03-20T11:17:59;15.95;;;11.60;;
32108;SDS011;18624;50.042;8.436;2023-03-20T11:20:43;17.20;;;12.65;;
32108;SDS011;18624;50.042;8.436;2023-03-20T11:23:28;15.10;;;11.90;;
32108;SDS011;18624;50.042;8.436;2023-03-20T11:25:58;15.55;;;11.43;;
32108;SDS011;18624;50.042;8.436;2023-03-20T11:28:33;16.05;;;11.68;;
32108;SDS011;18624;50.042;8.436;2023-03-20T11:31:31;17.35;;;11.10;;
32108;SDS011;18624;50.042;8.436;2023-03-20T11:36:44;14.32;;;10.05;;
32108;SDS011;18624;50.042;8.436;2023-03-20T11:39:34;15.57;;;12.20;;
32108;SDS011;18624;50.042;8.436;2023-03-20T11:42:03;13.43;;;10.13;;
32108;SDS011;18624;50.042;8.436;2023-03-20T11:44:45;13.07;;;9.13;;
32108;SDS011;18624;50.042;8.436;2023-03-20T11:47:23;13.15;;;10.02;;
32108;SDS011;18624;50.042;8.436;2023-03-20T11:49:56;12.10;;;8.93;;
32108;SDS011;18624;50.042;8.436;2023-03-20T11:52:28;10.60;;;8.10;;
32108;SDS011;18624;50.042;8.436;2023-03-20T11:54:59;8.52;;;7.38;;
32108;SDS011;18624;50.042;8.436;2023-03-20T11:57:32;11.98;;;8.45;;
32108;SDS011;18624;50.042;8.436;2023-03-20T12:02:51;11.32;;;8.55;;
32108;SDS011;18624;50.042;8.436;2023-03-20T12:05:19;9.95;;;8.07;;
32108;SDS011;18624;50.042;8.436;2023-03-20T12:08:08;7.32;;;6.13;;
32108;SDS011;18624;50.042;8.436;2023-03-20T12:10:41;8.57;;;6.90;;
32108;SDS011;18624;50.042;8.436;2023-03-20T12:13:19;10.82;;;6.63;;
32108;SDS011;18624;50.042;8.436;2023-03-20T12:15:50;8.30;;;7.25;;
32108;SDS011;18624;50.042;8.436;2023-03-20T12:21:11;8.80;;;6.25;;
32108;SDS011;18624;50.042;8.436;2023-03-20T12:26:14;16.17;;;7.65;;
32108;SDS011;18624;50.042;8.436;2023-03-20T12:29:02;10.98;;;5.90;;
32108;SDS011;18624;50.042;8.436;2023-03-20T12:31:43;8.68;;;4.70;;
32108;SDS011;18624;50.042;8.436;2023-03-20T12:34:34;6.10;;;3.93;;
32108;SDS011;18624;50.042;8.436;2023-03-20T12:37:10;5.25;;;4.25;;
32108;SDS011;18624;50.042;8.436;2023-03-20T12:39:37;6.15;;;4.47;;
32108;SDS011;18624;50.042;8.436;2023-03-20T12:45:09;4.47;;;3.55;;
32108;SDS011;18624;50.042;8.436;2023-03-20T12:50:36;5.13;;;3.28;;
32108;SDS011;18624;50.042;8.436;2023-03-20T13:01:38;3.95;;;2.53;;
32108;SDS011;18624;50.042;8.436;2023-03-20T13:07:00;6.03;;;3.03;;
32108;SDS011;18624;50.042;8.436;2023-03-20T13:21:08;6.32;;;3.05;;
32108;SDS011;18624;50.042;8.436;2023-03-20T13:26:21;3.50;;;2.40;;
32108;SDS011;18624;50.042;8.436;2023-03-20T13:31:44;3.40;;;2.70;;
32108;SDS011;18624;50.042;8.436;2023-03-20T13:34:26;9.23;;;3.80;;
32108;SDS011;18624;50.042;8.436;2023-03-20T13:37:00;5.43;;;3.90;;
32108;SDS011;18624;50.042;8.436;2023-03-20T13:42:54;3.53;;;2.42;;
32108;SDS011;18624;50.042;8.436;2023-03-20T13:45:33;3.13;;;2.13;;
32108;SDS011;18624;50.042;8.436;2023-03-20T13:48:09;2.60;;;2.03;;
32108;SDS011;18624;50.042;8.436;2023-03-20T13:50:48;4.78;;;2.80;;
32108;SDS011;18624;50.042;8.436;2023-03-20T13:53:26;2.60;;;2.22;;
32108;SDS011;18624;50.042;8.436;2023-03-20T14:01:10;4.47;;;2.65;;
32108;SDS011;18624;50.042;8.436;2023-03-20T14:03:44;5.72;;;2.70;;
32108;SDS011;18624;50.042;8.436;2023-03-20T14:06:55;4.88;;;2.92;;
32108;SDS011;18624;50.042;8.436;2023-03-20T14:09:04;5.88;;;3.03;;
32108;SDS011;18624;50.042;8.436;2023-03-20T14:11:51;4.53;;;3.10;;
32108;SDS011;18624;50.042;8.436;2023-03-20T14:16:59;3.80;;;2.70;;
32108;SDS011;18624;50.042;8.436;2023-03-20T14:19:28;5.30;;;3.03;;
32108;SDS011;18624;50.042;8.436;2023-03-20T14:21:55;4.88;;;3.50;;
32108;SDS011;18624;50.042;8.436;2023-03-20T14:24:22;6.50;;;3.80;;
32108;SDS011;18624;50.042;8.436;2023-03-20T14:26:53;3.70;;;2.80;;
32108;SDS011;18624;50.042;8.436;2023-03-20T14:47:52;5.00;;;2.38;;
32108;SDS011;18624;50.042;8.436;2023-03-20T14:50:24;5.35;;;3.00;;
32108;SDS011;18624;50.042;8.436;2023-03-20T14:53:15;6.65;;;3.47;;
32108;SDS011;18624;50.042;8.436;2023-03-20T14:55:51;4.22;;;3.13;;
32108;SDS011;18624;50.042;8.436;2023-03-20T15:01:06;3.67;;;3.13;;
32108;SDS011;18624;50.042;8.436;2023-03-20T15:06:33;4.50;;;2.83;;
32108;SDS011;18624;50.042;8.436;2023-03-20T15:09:08;4.82;;;2.90;;
32108;SDS011;18624;50.042;8.436;2023-03-20T15:11:36;4.05;;;2.80;;
32108;SDS011;18624;50.042;8.436;2023-03-20T15:14:05;3.50;;;2.00;;
32108;SDS011;18624;50.042;8.436;2023-03-20T15:16:34;4.78;;;3.15;;
32108;SDS011;18624;50.042;8.436;2023-03-20T15:19:03;5.10;;;2.47;;
32108;SDS011;18624;50.042;8.436;2023-03-20T15:21:33;3.67;;;1.98;;
32108;SDS011;18624;50.042;8.436;2023-03-20T15:24:02;6.32;;;2.40;;
32108;SDS011;18624;50.042;8.436;2023-03-20T15:26:31;2.60;;;1.58;;
32108;SDS011;18624;50.042;8.436;2023-03-20T15:29:00;3.33;;;2.17;;
32108;SDS011;18624;50.042;8.436;2023-03-20T15:31:30;2.92;;;1.80;;
32108;SDS011;18624;50.042;8.436;2023-03-20T15:34:00;3.38;;;1.63;;
32108;SDS011;18624;50.042;8.436;2023-03-20T15:36:30;2.70;;;1.20;;
32108;SDS011;18624;50.042;8.436;2023-03-20T15:39:19;2.25;;;1.60;;
32108;SDS011;18624;50.042;8.436;2023-03-20T15:41:52;4.95;;;2.15;;
32108;SDS011;18624;50.042;8.436;2023-03-20T15:44:25;2.13;;;1.73;;
32108;SDS011;18624;50.042;8.436;2023-03-20T15:46:59;1.60;;;1.25;;
32108;SDS011;18624;50.042;8.436;2023-03-20T15:49:27;1.92;;;1.40;;
32108;SDS011;18624;50.042;8.436;2023-03-20T15:51:57;2.30;;;1.50;;
32108;SDS011;18624;50.042;8.436;2023-03-20T15:54:27;2.83;;;1.40;;
32108;SDS011;18624;50.042;8.436;2023-03-20T15:56:55;3.75;;;1.52;;
32108;SDS011;18624;50.042;8.436;2023-03-20T15:59:26;3.10;;;1.30;;
32108;SDS011;18624;50.042;8.436;2023-03-20T16:01:57;3.20;;;1.58;;
32108;SDS011;18624;50.042;8.436;2023-03-20T16:04:25;3.40;;;1.75;;
32108;SDS011;18624;50.042;8.436;2023-03-20T16:06:54;2.42;;;1.55;;
32108;SDS011;18624;50.042;8.436;2023-03-20T16:09:26;2.20;;;1.33;;
32108;SDS011;18624;50.042;8.436;2023-03-20T16:11:57;3.72;;;1.65;;
32108;SDS011;18624;50.042;8.436;2023-03-20T16:14:26;4.80;;;1.80;;
32108;SDS011;18624;50.042;8.436;2023-03-20T16:16:57;2.60;;;1.63;;
32108;SDS011;18624;50.042;8.436;2023-03-20T16:19:26;2.70;;;1.55;;
32108;SDS011;18624;50.042;8.436;2023-03-20T16:21:58;4.25;;;1.83;;
32108;SDS011;18624;50.042;8.436;2023-03-20T16:24:33;3.90;;;1.80;;
32108;SDS011;18624;50.042;8.436;2023-03-20T16:27:07;4.22;;;1.95;;
32108;SDS011;18624;50.042;8.436;2023-03-20T16:29:35;6.40;;;1.77;;
32108;SDS011;18624;50.042;8.436;2023-03-20T16:32:03;2.47;;;1.92;;
32108;SDS011;18624;50.042;8.436;2023-03-20T16:34:33;2.70;;;1.75;;
32108;SDS011;18624;50.042;8.436;2023-03-20T16:37:05;4.55;;;2.15;;
32108;SDS011;18624;50.042;8.436;2023-03-20T16:39:34;3.05;;;1.73;;
32108;SDS011;18624;50.042;8.436;2023-03-20T16:42:13;2.17;;;1.88;;
32108;SDS011;18624;50.042;8.436;2023-03-20T16:44:52;5.82;;;2.33;;
32108;SDS011;18624;50.042;8.436;2023-03-20T16:47:34;3.35;;;2.35;;
32108;SDS011;18624;50.042;8.436;2023-03-20T16:50:22;4.20;;;2.08;;
32108;SDS011;18624;50.042;8.436;2023-03-20T16:53:00;4.88;;;2.75;;
32108;SDS011;18624;50.042;8.436;2023-03-20T16:55:28;4.15;;;3.08;;
32108;SDS011;18624;50.042;8.436;2023-03-20T16:57:57;5.68;;;2.92;;
32108;SDS011;18624;50.042;8.436;2023-03-20T17:00:28;5.72;;;3.17;;
32108;SDS011;18624;50.042;8.436;2023-03-20T17:02:57;3.90;;;2.58;;
32108;SDS011;18624;50.042;8.436;2023-03-20T17:05:33;4.05;;;2.33;;
32108;SDS011;18624;50.042;8.436;2023-03-20T17:08:12;3.08;;;2.08;;
32108;SDS011;18624;50.042;8.436;2023-03-20T17:10:42;4.05;;;2.70;;
32108;SDS011;18624;50.042;8.436;2023-03-20T17:13:11;4.78;;;2.60;;
32108;SDS011;18624;50.042;8.436;2023-03-20T17:15:37;3.17;;;2.55;;
32108;SDS011;18624;50.042;8.436;2023-03-20T17:18:04;5.43;;;2.58;;
32108;SDS011;18624;50.042;8.436;2023-03-20T17:20:34;3.47;;;2.30;;
32108;SDS011;18624;50.042;8.436;2023-03-20T17:23:01;4.15;;;2.38;;